Norbank — PGIS — position and weather

sailwx.info

Track history (hours):
 
Tides and Currents Weather Stations Pressure Air Temp Water Temp Dewpoint Dewpoint Depression Visibility Wind Speed Wind Dir Waves Ship Positions

Norbank

Operator: P & O Ferries

Last reported at 2014-Oct-20 23:27 UTC. Time now 2014-Oct-21 18:22 UTC.
Position N 53°34' W 003°56'.

Length 167 m; draft 5.7 m.

Type: Ship (hazmat cat A). MMSI: 246213000.

Date/timePositionNaut miles runAvg speedWind from/ knotsBaromVisibWave heightAir tempDewpointWater temp
2014-Oct-20 23:27N 53°34' W 003°56'1820.3
2014-Oct-20 22:34N 53°33' W 003°25'1612.3
2014-Oct-20 21:17N 53°27' W 003°01'0 0.5
2014-Oct-20 20:18N 53°27' W 003°01'0 0.0
2014-Oct-20 19:30N 53°27' W 003°01'0 0.0
2014-Oct-20 18:23N 53°27' W 003°01'0 0.0
2014-Oct-20 17:23N 53°27' W 003°01'0 0.0
2014-Oct-20 16:16N 53°27' W 003°01'0 0.0
2014-Oct-20 15:22N 53°27' W 003°01'0 0.0
2014-Oct-20 14:09N 53°27' W 003°01'0 0.0
2014-Oct-20 13:33N 53°27' W 003°01'0 0.0
2014-Oct-20 08:19N 53°27' W 003°01'0 0.0
2014-Oct-20 07:06N 53°27' W 003°01'0 0.0
2014-Oct-20 06:06N 53°27' W 003°01'0 0.0
2014-Oct-20 05:33N 53°27' W 003°01'0 0.2
2014-Oct-20 04:33N 53°27' W 003°01'4 3.7
2014-Oct-20 03:32N 53°30' W 003°06'1514.9
2014-Oct-20 02:33N 53°31' W 003°30'1615.8
2014-Oct-20 01:33N 53°33' W 003°57'1 0.0
2014-Oct-18 23:15N 53°34' W 003°58'1218.0
2014-Oct-18 22:34N 53°33' W 003°37'1818.1
2014-Oct-18 21:33N 53°31' W 003°06'5 4.9
2014-Oct-18 20:33N 53°27' W 003°01'0 0.2
2014-Oct-18 19:29N 53°27' W 003°01'0 0.0
2014-Oct-18 17:16N 53°27' W 003°01'0 0.0
2014-Oct-18 16:15N 53°27' W 003°01'0 0.6
2014-Oct-18 15:28N 53°27' W 003°01'7 7.2
2014-Oct-18 14:33N 53°32' W 003°09'1919.2
2014-Oct-18 13:33N 53°31' W 003°41'2020.2
2014-Oct-18 12:33N 53°35' W 004°15'9 0.7
2014-Oct-17 23:27N 53°35' W 003°60'1819.6
2014-Oct-17 22:33N 53°34' W 003°30'1817.5
2014-Oct-17 21:34N 53°28' W 003°03'1 1.0
2014-Oct-17 20:28N 53°27' W 003°01'0 0.0
2014-Oct-17 19:28N 53°27' W 003°01'0 0.0
2014-Oct-17 18:27N 53°27' W 003°01'0 0.0
2014-Oct-17 17:33N 53°27' W 003°01'0 0.0
2014-Oct-17 16:27N 53°27' W 003°01'0 0.3
2014-Oct-17 15:33N 53°27' W 003°01'6 5.5
2014-Oct-17 14:33N 53°31' W 003°07'1918.9
2014-Oct-17 13:33N 53°31' W 003°39'2020.1
2014-Oct-17 12:33N 53°35' W 004°12'5 0.4
2014-Oct-16 23:07N 53°33' W 004°03'1119.4
2014-Oct-16 22:33N 53°33' W 003°45'1919.3
2014-Oct-16 21:33N 53°31' W 003°13'8 8.0
2014-Oct-16 20:32N 53°27' W 003°01'0 0.4
2014-Oct-16 19:23N 53°27' W 003°01'0 0.0
2014-Oct-16 18:29N 53°27' W 003°01'0 0.0
2014-Oct-16 17:22N 53°27' W 003°01'0 0.0
2014-Oct-16 16:22N 53°27' W 003°01'0 0.5
2014-Oct-16 15:32N 53°27' W 003°01'8 8.4
2014-Oct-16 14:33N 53°31' W 003°13'1919.2
2014-Oct-16 13:33N 53°32' W 003°45'2019.7
2014-Oct-16 12:33N 53°35' W 004°18'12 0.9
2014-Oct-15 23:25N 53°35' W 003°58'1618.7
2014-Oct-15 22:33N 53°33' W 003°31'1615.9
2014-Oct-15 21:33N 53°29' W 003°05'3 2.6
2014-Oct-15 20:26N 53°27' W 003°01'0 0.0
2014-Oct-15 19:32N 53°27' W 003°01'0 0.0
2014-Oct-15 18:31N 53°27' W 003°01'0 0.0
2014-Oct-15 17:31N 53°27' W 003°01'0 0.0
2014-Oct-15 16:31N 53°27' W 003°01'0 0.4
2014-Oct-15 15:33N 53°27' W 003°01'6 6.3
2014-Oct-15 14:33N 53°32' W 003°08'1818.0
2014-Oct-15 13:33N 53°31' W 003°39'1817.9
2014-Oct-15 12:34N 53°34' W 004°08'4 0.3
2014-Oct-14 23:17N 53°34' W 004°01'1318.3
2014-Oct-14 22:33N 53°34' W 003°39'1817.6
2014-Oct-14 21:33N 53°32' W 003°09'7 6.8
2014-Oct-14 20:33N 53°27' W 003°01'0 0.4
2014-Oct-14 19:28N 53°27' W 003°01'0 0.0
2014-Oct-14 18:28N 53°27' W 003°01'0 0.0
2014-Oct-14 17:33N 53°27' W 003°01'0 0.0
2014-Oct-14 16:33N 53°27' W 003°01'1 0.7
2014-Oct-14 15:33N 53°27' W 003°02'1616.0
2014-Oct-14 14:33N 53°31' W 003°28'1616.2
2014-Oct-14 13:32N 53°33' W 003°56'4 0.3
2014-Oct-13 22:33N 53°33' W 003°49'1817.8
2014-Oct-13 21:33N 53°32' W 003°19'1212.0
2014-Oct-13 20:34N 53°27' W 003°01'0 0.4
2014-Oct-13 19:23N 53°27' W 003°01'0 0.0
2014-Oct-13 18:29N 53°27' W 003°01'0 0.0
2014-Oct-13 17:28N 53°27' W 003°01'0 0.0
2014-Oct-13 16:28N 53°27' W 003°01'0 0.0
2014-Oct-13 15:33N 53°27' W 003°01'0 0.0
2014-Oct-13 14:33N 53°27' W 003°01'0 0.0
2014-Oct-13 13:32N 53°27' W 003°01'0 0.0
2014-Oct-13 12:26N 53°27' W 003°01'0 0.0
2014-Oct-13 11:31N 53°27' W 003°01'0 0.0
2014-Oct-13 10:31N 53°27' W 003°01'0 0.0
2014-Oct-13 09:18N 53°27' W 003°01'0 0.0
2014-Oct-13 08:30N 53°27' W 003°01'0 0.0
2014-Oct-13 07:30N 53°27' W 003°01'0 0.0
2014-Oct-13 06:29N 53°27' W 003°01'0 0.0
2014-Oct-13 05:29N 53°27' W 003°01'0 0.5
2014-Oct-13 04:31N 53°27' W 003°01'6 5.8
2014-Oct-13 03:33N 53°31' W 003°07'1616.1
2014-Oct-13 02:33N 53°31' W 003°34'1615.5
2014-Oct-13 01:33N 53°33' W 004°00'1 0.0
2014-Oct-11 23:21N 53°33' W 004°00'1214.8
2014-Oct-11 22:33N 53°33' W 003°40'1514.6
2014-Oct-11 21:33N 53°32' W 003°16'10 9.9
2014-Oct-11 20:33N 53°27' W 003°01'0 0.4
2014-Oct-11 19:31N 53°27' W 003°01'0 0.0
2014-Oct-11 18:30N 53°27' W 003°01'0 0.0
2014-Oct-11 17:30N 53°27' W 003°01'0 0.0
2014-Oct-11 16:29N 53°27' W 003°01'0 0.4
2014-Oct-11 15:26N 53°27' W 003°01'7 8.4
2014-Oct-11 14:34N 53°32' W 003°11'1717.2
2014-Oct-11 13:33N 53°31' W 003°40'1816.8
2014-Oct-11 12:30N 53°32' W 004°10'  
Track history (hours):
 
Tides and Currents Weather Stations Pressure Air Temp Water Temp Dewpoint Dewpoint Depression Visibility Wind Speed Wind Dir Waves Ship Positions

Norbank

Operator: P & O Ferries

Last reported at 2014-Oct-20 23:27 UTC. Time now 2014-Oct-21 18:22 UTC.
Position N 53°34' W 003°56'.

Length 167 m; draft 5.7 m.

Type: Ship (hazmat cat A). MMSI: 246213000.

Date/timePositionNaut miles runAvg speedWind from/ knotsBaromVisibWave heightAir tempDewpointWater temp
2014-Oct-20 23:27N 53°34' W 003°56'1820.3
2014-Oct-20 22:34N 53°33' W 003°25'1612.3
2014-Oct-20 21:17N 53°27' W 003°01'0 0.5
2014-Oct-20 20:18N 53°27' W 003°01'0 0.0
2014-Oct-20 19:30N 53°27' W 003°01'0 0.0
2014-Oct-20 18:23N 53°27' W 003°01'0 0.0
2014-Oct-20 17:23N 53°27' W 003°01'0 0.0
2014-Oct-20 16:16N 53°27' W 003°01'0 0.0
2014-Oct-20 15:22N 53°27' W 003°01'0 0.0
2014-Oct-20 14:09N 53°27' W 003°01'0 0.0
2014-Oct-20 13:33N 53°27' W 003°01'0 0.0
2014-Oct-20 08:19N 53°27' W 003°01'0 0.0
2014-Oct-20 07:06N 53°27' W 003°01'0 0.0
2014-Oct-20 06:06N 53°27' W 003°01'0 0.0
2014-Oct-20 05:33N 53°27' W 003°01'0 0.2
2014-Oct-20 04:33N 53°27' W 003°01'4 3.7
2014-Oct-20 03:32N 53°30' W 003°06'1514.9
2014-Oct-20 02:33N 53°31' W 003°30'1615.8
2014-Oct-20 01:33N 53°33' W 003°57'1 0.0
2014-Oct-18 23:15N 53°34' W 003°58'1218.0
2014-Oct-18 22:34N 53°33' W 003°37'1818.1
2014-Oct-18 21:33N 53°31' W 003°06'5 4.9
2014-Oct-18 20:33N 53°27' W 003°01'0 0.2
2014-Oct-18 19:29N 53°27' W 003°01'0 0.0
2014-Oct-18 17:16N 53°27' W 003°01'0 0.0
2014-Oct-18 16:15N 53°27' W 003°01'0 0.6
2014-Oct-18 15:28N 53°27' W 003°01'7 7.2
2014-Oct-18 14:33N 53°32' W 003°09'1919.2
2014-Oct-18 13:33N 53°31' W 003°41'2020.2
2014-Oct-18 12:33N 53°35' W 004°15'9 0.7
2014-Oct-17 23:27N 53°35' W 003°60'1819.6
2014-Oct-17 22:33N 53°34' W 003°30'1817.5
2014-Oct-17 21:34N 53°28' W 003°03'1 1.0
2014-Oct-17 20:28N 53°27' W 003°01'0 0.0
2014-Oct-17 19:28N 53°27' W 003°01'0 0.0
2014-Oct-17 18:27N 53°27' W 003°01'0 0.0
2014-Oct-17 17:33N 53°27' W 003°01'0 0.0
2014-Oct-17 16:27N 53°27' W 003°01'0 0.3
2014-Oct-17 15:33N 53°27' W 003°01'6 5.5
2014-Oct-17 14:33N 53°31' W 003°07'1918.9
2014-Oct-17 13:33N 53°31' W 003°39'2020.1
2014-Oct-17 12:33N 53°35' W 004°12'5 0.4
2014-Oct-16 23:07N 53°33' W 004°03'1119.4
2014-Oct-16 22:33N 53°33' W 003°45'1919.3
2014-Oct-16 21:33N 53°31' W 003°13'8 8.0
2014-Oct-16 20:32N 53°27' W 003°01'0 0.4
2014-Oct-16 19:23N 53°27' W 003°01'0 0.0
2014-Oct-16 18:29N 53°27' W 003°01'0 0.0
2014-Oct-16 17:22N 53°27' W 003°01'0 0.0
2014-Oct-16 16:22N 53°27' W 003°01'0 0.5
2014-Oct-16 15:32N 53°27' W 003°01'8 8.4
2014-Oct-16 14:33N 53°31' W 003°13'1919.2
2014-Oct-16 13:33N 53°32' W 003°45'2019.7
2014-Oct-16 12:33N 53°35' W 004°18'12 0.9
2014-Oct-15 23:25N 53°35' W 003°58'1618.7
2014-Oct-15 22:33N 53°33' W 003°31'1615.9
2014-Oct-15 21:33N 53°29' W 003°05'3 2.6
2014-Oct-15 20:26N 53°27' W 003°01'0 0.0
2014-Oct-15 19:32N 53°27' W 003°01'0 0.0
2014-Oct-15 18:31N 53°27' W 003°01'0 0.0
2014-Oct-15 17:31N 53°27' W 003°01'0 0.0
2014-Oct-15 16:31N 53°27' W 003°01'0 0.4
2014-Oct-15 15:33N 53°27' W 003°01'6 6.3
2014-Oct-15 14:33N 53°32' W 003°08'1818.0
2014-Oct-15 13:33N 53°31' W 003°39'1817.9
2014-Oct-15 12:34N 53°34' W 004°08'4 0.3
2014-Oct-14 23:17N 53°34' W 004°01'1318.3
2014-Oct-14 22:33N 53°34' W 003°39'1817.6
2014-Oct-14 21:33N 53°32' W 003°09'7 6.8
2014-Oct-14 20:33N 53°27' W 003°01'0 0.4
2014-Oct-14 19:28N 53°27' W 003°01'0 0.0
2014-Oct-14 18:28N 53°27' W 003°01'0 0.0
2014-Oct-14 17:33N 53°27' W 003°01'0 0.0
2014-Oct-14 16:33N 53°27' W 003°01'1 0.7
2014-Oct-14 15:33N 53°27' W 003°02'1616.0
2014-Oct-14 14:33N 53°31' W 003°28'1616.2
2014-Oct-14 13:32N 53°33' W 003°56'4 0.3
2014-Oct-13 22:33N 53°33' W 003°49'1817.8
2014-Oct-13 21:33N 53°32' W 003°19'1212.0
2014-Oct-13 20:34N 53°27' W 003°01'0 0.4
2014-Oct-13 19:23N 53°27' W 003°01'0 0.0
2014-Oct-13 18:29N 53°27' W 003°01'0 0.0
2014-Oct-13 17:28N 53°27' W 003°01'0 0.0
2014-Oct-13 16:28N 53°27' W 003°01'0 0.0
2014-Oct-13 15:33N 53°27' W 003°01'0 0.0
2014-Oct-13 14:33N 53°27' W 003°01'0 0.0
2014-Oct-13 13:32N 53°27' W 003°01'0 0.0
2014-Oct-13 12:26N 53°27' W 003°01'0 0.0
2014-Oct-13 11:31N 53°27' W 003°01'0 0.0
2014-Oct-13 10:31N 53°27' W 003°01'0 0.0
2014-Oct-13 09:18N 53°27' W 003°01'0 0.0
2014-Oct-13 08:30N 53°27' W 003°01'0 0.0
2014-Oct-13 07:30N 53°27' W 003°01'0 0.0
2014-Oct-13 06:29N 53°27' W 003°01'0 0.0
2014-Oct-13 05:29N 53°27' W 003°01'0 0.5
2014-Oct-13 04:31N 53°27' W 003°01'6 5.8
2014-Oct-13 03:33N 53°31' W 003°07'1616.1
2014-Oct-13 02:33N 53°31' W 003°34'1615.5
2014-Oct-13 01:33N 53°33' W 004°00'1 0.0
2014-Oct-11 23:21N 53°33' W 004°00'1214.8
2014-Oct-11 22:33N 53°33' W 003°40'1514.6
2014-Oct-11 21:33N 53°32' W 003°16'10 9.9
2014-Oct-11 20:33N 53°27' W 003°01'0 0.4
2014-Oct-11 19:31N 53°27' W 003°01'0 0.0
2014-Oct-11 18:30N 53°27' W 003°01'0 0.0
2014-Oct-11 17:30N 53°27' W 003°01'0 0.0
2014-Oct-11 16:29N 53°27' W 003°01'0 0.4
2014-Oct-11 15:26N 53°27' W 003°01'7 8.4
2014-Oct-11 14:34N 53°32' W 003°11'1717.2
2014-Oct-11 13:33N 53°31' W 003°40'1816.8
2014-Oct-11 12:30N 53°32' W 004°10'  

Dump ship's entire track history